Avenel, New Jersey
Current Conditions -  °F | °C
As of 5:35 PM on Wednesday 22 Oct 2014 (Local Time) from KLDJ Reporting Station
Light Rain Light Rain  
Wind Chill: 57°   Ceiling: 2500
Heat Index: 57°   Visibility: 4mi
Dew Point: 52°   Wind: 13mph
Humidity: 82%   Direction: 30°NNE
Pressure: 29.85"   Gusts: 20mph
Location:  40.58°N, 74.28°W
Report Text: KLDJ 222135Z AUTO 03011G17KT 4SM -RA BKN025 OVC033 14/11 A2985 RMK AO2 LTG DSNT S P0001 T01410111
Loading
Personal Weather Stations






























Interactive Weather Map New forecast layout! Learn more

10-Day Weather Forecast

Advertisements
Track Severe Weather on mobile